sensor_id;sensor_type;location;lat;lon;timestamp;temperature;humidity
27801;DHT22;15181;49.112;11.930;2022-12-18T00:01:29;-4.50;99.90
27801;DHT22;15181;49.112;11.930;2022-12-18T00:03:57;-4.40;99.90
27801;DHT22;15181;49.112;11.930;2022-12-18T00:06:26;-4.40;99.90
27801;DHT22;15181;49.112;11.930;2022-12-18T00:08:55;-4.40;99.90
27801;DHT22;15181;49.112;11.930;2022-12-18T00:11:25;-4.40;99.90
27801;DHT22;15181;49.112;11.930;2022-12-18T00:13:57;-4.40;99.90
27801;DHT22;15181;49.112;11.930;2022-12-18T00:16:26;-4.40;99.90
27801;DHT22;15181;49.112;11.930;2022-12-18T00:18:55;-4.30;99.90
27801;DHT22;15181;49.112;11.930;2022-12-18T00:21:26;-4.40;99.90
27801;DHT22;15181;49.112;11.930;2022-12-18T00:23:53;-4.30;99.90
27801;DHT22;15181;49.112;11.930;2022-12-18T00:26:23;-4.20;99.90
27801;DHT22;15181;49.112;11.930;2022-12-18T00:28:51;-4.20;99.90
27801;DHT22;15181;49.112;11.930;2022-12-18T00:31:23;-4.30;99.90
27801;DHT22;15181;49.112;11.930;2022-12-18T00:33:52;-4.20;99.90
27801;DHT22;15181;49.112;11.930;2022-12-18T00:36:22;-4.20;99.90
27801;DHT22;15181;49.112;11.930;2022-12-18T00:38:50;-4.20;99.90
27801;DHT22;15181;49.112;11.930;2022-12-18T00:41:21;-4.20;99.90
27801;DHT22;15181;49.112;11.930;2022-12-18T00:44:03;-4.20;99.90
27801;DHT22;15181;49.112;11.930;2022-12-18T00:46:32;-4.20;99.90
27801;DHT22;15181;49.112;11.930;2022-12-18T00:49:00;-4.20;99.90
27801;DHT22;15181;49.112;11.930;2022-12-18T00:51:28;-4.20;99.90
27801;DHT22;15181;49.112;11.930;2022-12-18T00:53:55;-4.20;99.90
27801;DHT22;15181;49.112;11.930;2022-12-18T00:56:23;-4.20;99.90
27801;DHT22;15181;49.112;11.930;2022-12-18T00:58:54;-4.20;99.90
27801;DHT22;15181;49.112;11.930;2022-12-18T01:01:21;-4.20;99.90
27801;DHT22;15181;49.112;11.930;2022-12-18T01:03:50;-4.20;99.90
27801;DHT22;15181;49.112;11.930;2022-12-18T01:06:17;-4.10;99.90
27801;DHT22;15181;49.112;11.930;2022-12-18T01:08:45;-4.20;99.90
27801;DHT22;15181;49.112;11.930;2022-12-18T01:11:15;-4.20;99.90
27801;DHT22;15181;49.112;11.930;2022-12-18T01:13:43;-4.10;99.90
27801;DHT22;15181;49.112;11.930;2022-12-18T01:16:12;-4.10;99.90
27801;DHT22;15181;49.112;11.930;2022-12-18T01:18:42;-4.10;99.90
27801;DHT22;15181;49.112;11.930;2022-12-18T01:21:14;-4.00;99.90
27801;DHT22;15181;49.112;11.930;2022-12-18T01:23:42;-4.00;99.90
27801;DHT22;15181;49.112;11.930;2022-12-18T01:26:12;-4.00;99.90
27801;DHT22;15181;49.112;11.930;2022-12-18T01:28:39;-4.00;99.90
27801;DHT22;15181;49.112;11.930;2022-12-18T01:31:15;-4.00;99.90
27801;DHT22;15181;49.112;11.930;2022-12-18T01:33:44;-4.00;99.90
27801;DHT22;15181;49.112;11.930;2022-12-18T01:36:19;-4.00;99.90
27801;DHT22;15181;49.112;11.930;2022-12-18T01:38:50;-4.00;99.90
27801;DHT22;15181;49.112;11.930;2022-12-18T01:41:19;-4.00;99.90
27801;DHT22;15181;49.112;11.930;2022-12-18T01:43:50;-4.00;99.90
27801;DHT22;15181;49.112;11.930;2022-12-18T01:46:20;-4.00;99.90
27801;DHT22;15181;49.112;11.930;2022-12-18T01:48:49;-4.00;99.90
27801;DHT22;15181;49.112;11.930;2022-12-18T01:51:20;-4.00;99.90
27801;DHT22;15181;49.112;11.930;2022-12-18T01:53:48;-4.00;99.90
27801;DHT22;15181;49.112;11.930;2022-12-18T01:56:17;-3.90;99.90
27801;DHT22;15181;49.112;11.930;2022-12-18T01:58:51;-3.90;99.90
27801;DHT22;15181;49.112;11.930;2022-12-18T02:01:21;-3.90;99.90
27801;DHT22;15181;49.112;11.930;2022-12-18T02:03:49;-3.90;99.90
27801;DHT22;15181;49.112;11.930;2022-12-18T02:06:28;-3.90;99.90
27801;DHT22;15181;49.112;11.930;2022-12-18T02:09:02;-4.00;99.90
27801;DHT22;15181;49.112;11.930;2022-12-18T02:11:40;-4.00;99.90
27801;DHT22;15181;49.112;11.930;2022-12-18T02:14:17;-4.00;99.90
27801;DHT22;15181;49.112;11.930;2022-12-18T02:16:51;-4.00;99.90
27801;DHT22;15181;49.112;11.930;2022-12-18T02:19:38;-4.00;99.90
27801;DHT22;15181;49.112;11.930;2022-12-18T02:22:29;-4.10;99.90
27801;DHT22;15181;49.112;11.930;2022-12-18T02:25:10;-4.10;99.90
27801;DHT22;15181;49.112;11.930;2022-12-18T02:27:41;-4.10;99.90
27801;DHT22;15181;49.112;11.930;2022-12-18T02:30:14;-4.20;99.90
27801;DHT22;15181;49.112;11.930;2022-12-18T02:32:46;-4.20;99.90
27801;DHT22;15181;49.112;11.930;2022-12-18T02:35:16;-4.40;99.90
27801;DHT22;15181;49.112;11.930;2022-12-18T02:37:46;-4.40;99.90
27801;DHT22;15181;49.112;11.930;2022-12-18T02:40:19;-4.50;99.90
27801;DHT22;15181;49.112;11.930;2022-12-18T02:42:49;-4.50;99.90
27801;DHT22;15181;49.112;11.930;2022-12-18T02:45:16;-4.80;99.90
27801;DHT22;15181;49.112;11.930;2022-12-18T02:47:47;-4.80;99.90
27801;DHT22;15181;49.112;11.930;2022-12-18T02:50:19;-4.90;99.90
27801;DHT22;15181;49.112;11.930;2022-12-18T02:52:59;-4.90;99.90
27801;DHT22;15181;49.112;11.930;2022-12-18T02:55:48;-5.00;99.90
27801;DHT22;15181;49.112;11.930;2022-12-18T02:58:26;-5.20;99.90
27801;DHT22;15181;49.112;11.930;2022-12-18T03:01:00;-5.00;99.90
27801;DHT22;15181;49.112;11.930;2022-12-18T03:03:31;-5.00;99.90
27801;DHT22;15181;49.112;11.930;2022-12-18T03:06:04;-5.00;99.90
27801;DHT22;15181;49.112;11.930;2022-12-18T03:08:36;-5.00;99.90
27801;DHT22;15181;49.112;11.930;2022-12-18T03:11:07;-5.10;99.90
27801;DHT22;15181;49.112;11.930;2022-12-18T03:13:39;-5.20;99.90
27801;DHT22;15181;49.112;11.930;2022-12-18T03:16:11;-5.10;99.90
27801;DHT22;15181;49.112;11.930;2022-12-18T03:18:42;-5.10;99.90
27801;DHT22;15181;49.112;11.930;2022-12-18T03:21:13;-5.20;99.90
27801;DHT22;15181;49.112;11.930;2022-12-18T03:23:44;-5.20;99.90
27801;DHT22;15181;49.112;11.930;2022-12-18T03:26:15;-5.20;99.90
27801;DHT22;15181;49.112;11.930;2022-12-18T03:28:48;-5.20;99.90
27801;DHT22;15181;49.112;11.930;2022-12-18T03:31:17;-5.30;99.90
27801;DHT22;15181;49.112;11.930;2022-12-18T03:33:51;-5.20;99.90
27801;DHT22;15181;49.112;11.930;2022-12-18T03:36:21;-5.20;99.90
27801;DHT22;15181;49.112;11.930;2022-12-18T03:38:48;-5.10;99.90
27801;DHT22;15181;49.112;11.930;2022-12-18T03:41:19;-5.20;99.90
27801;DHT22;15181;49.112;11.930;2022-12-18T03:43:55;-5.20;99.90
27801;DHT22;15181;49.112;11.930;2022-12-18T03:46:29;-5.20;99.90
27801;DHT22;15181;49.112;11.930;2022-12-18T03:49:01;-5.10;99.90
27801;DHT22;15181;49.112;11.930;2022-12-18T03:51:37;-5.30;99.90
27801;DHT22;15181;49.112;11.930;2022-12-18T03:54:08;-5.30;99.90
27801;DHT22;15181;49.112;11.930;2022-12-18T03:56:40;-5.30;99.90
27801;DHT22;15181;49.112;11.930;2022-12-18T03:59:12;-5.30;99.90
27801;DHT22;15181;49.112;11.930;2022-12-18T04:01:45;-5.30;99.90
27801;DHT22;15181;49.112;11.930;2022-12-18T04:04:14;-5.30;99.90
27801;DHT22;15181;49.112;11.930;2022-12-18T04:06:43;-5.30;99.90
27801;DHT22;15181;49.112;11.930;2022-12-18T04:09:12;-5.30;99.90
27801;DHT22;15181;49.112;11.930;2022-12-18T04:11:40;-5.40;99.90
27801;DHT22;15181;49.112;11.930;2022-12-18T04:14:07;-5.40;99.90
27801;DHT22;15181;49.112;11.930;2022-12-18T04:16:36;-5.40;99.90
27801;DHT22;15181;49.112;11.930;2022-12-18T04:19:03;-5.30;99.90
27801;DHT22;15181;49.112;11.930;2022-12-18T04:21:30;-5.30;99.90
27801;DHT22;15181;49.112;11.930;2022-12-18T04:23:57;-5.30;99.90
27801;DHT22;15181;49.112;11.930;2022-12-18T04:26:24;-5.30;99.90
27801;DHT22;15181;49.112;11.930;2022-12-18T04:28:52;-5.30;99.90
27801;DHT22;15181;49.112;11.930;2022-12-18T04:31:22;-5.30;99.90
27801;DHT22;15181;49.112;11.930;2022-12-18T04:33:53;-5.30;99.90
27801;DHT22;15181;49.112;11.930;2022-12-18T04:36:20;-5.20;99.90
27801;DHT22;15181;49.112;11.930;2022-12-18T04:38:48;-5.30;99.90
27801;DHT22;15181;49.112;11.930;2022-12-18T04:41:16;-5.20;99.90
27801;DHT22;15181;49.112;11.930;2022-12-18T04:43:43;-5.20;99.90
27801;DHT22;15181;49.112;11.930;2022-12-18T04:46:12;-5.20;99.90
27801;DHT22;15181;49.112;11.930;2022-12-18T04:48:39;-5.30;99.90
27801;DHT22;15181;49.112;11.930;2022-12-18T04:51:08;-5.30;99.90
27801;DHT22;15181;49.112;11.930;2022-12-18T04:53:38;-5.30;99.90
27801;DHT22;15181;49.112;11.930;2022-12-18T04:56:07;-5.30;99.90
27801;DHT22;15181;49.112;11.930;2022-12-18T04:58:35;-5.40;99.90
27801;DHT22;15181;49.112;11.930;2022-12-18T05:01:03;-5.30;99.90
27801;DHT22;15181;49.112;11.930;2022-12-18T05:03:32;-5.30;99.90
27801;DHT22;15181;49.112;11.930;2022-12-18T05:06:00;-5.30;99.90
27801;DHT22;15181;49.112;11.930;2022-12-18T05:08:28;-5.40;99.90
27801;DHT22;15181;49.112;11.930;2022-12-18T05:10:59;-5.20;99.90
27801;DHT22;15181;49.112;11.930;2022-12-18T05:13:26;-5.30;99.90
27801;DHT22;15181;49.112;11.930;2022-12-18T05:15:55;-5.30;99.90
27801;DHT22;15181;49.112;11.930;2022-12-18T05:18:23;-5.30;99.90
27801;DHT22;15181;49.112;11.930;2022-12-18T05:20:50;-5.30;99.90
27801;DHT22;15181;49.112;11.930;2022-12-18T05:23:17;-5.30;99.90
27801;DHT22;15181;49.112;11.930;2022-12-18T05:25:51;-5.20;99.90
27801;DHT22;15181;49.112;11.930;2022-12-18T05:28:18;-5.20;99.90
27801;DHT22;15181;49.112;11.930;2022-12-18T05:30:49;-5.20;99.90
27801;DHT22;15181;49.112;11.930;2022-12-18T05:33:17;-5.00;99.90
27801;DHT22;15181;49.112;11.930;2022-12-18T05:35:50;-5.00;99.90
27801;DHT22;15181;49.112;11.930;2022-12-18T05:38:17;-4.70;99.90
27801;DHT22;15181;49.112;11.930;2022-12-18T05:40:48;-4.80;99.90
27801;DHT22;15181;49.112;11.930;2022-12-18T05:43:17;-4.80;99.90
27801;DHT22;15181;49.112;11.930;2022-12-18T05:45:45;-4.80;99.90
27801;DHT22;15181;49.112;11.930;2022-12-18T05:48:12;-4.70;99.90
27801;DHT22;15181;49.112;11.930;2022-12-18T05:50:44;-4.70;99.90
27801;DHT22;15181;49.112;11.930;2022-12-18T05:53:13;-4.60;99.90
27801;DHT22;15181;49.112;11.930;2022-12-18T05:55:42;-4.60;99.90
27801;DHT22;15181;49.112;11.930;2022-12-18T05:58:12;-4.50;99.90
27801;DHT22;15181;49.112;11.930;2022-12-18T06:00:42;-4.50;99.90
27801;DHT22;15181;49.112;11.930;2022-12-18T06:03:11;-4.60;99.90
27801;DHT22;15181;49.112;11.930;2022-12-18T06:05:40;-4.60;99.90
27801;DHT22;15181;49.112;11.930;2022-12-18T06:08:08;-4.60;99.90
27801;DHT22;15181;49.112;11.930;2022-12-18T06:10:35;-4.50;99.90
27801;DHT22;15181;49.112;11.930;2022-12-18T06:13:02;-4.50;99.90
27801;DHT22;15181;49.112;11.930;2022-12-18T06:15:31;-4.40;99.90
27801;DHT22;15181;49.112;11.930;2022-12-18T06:17:59;-4.40;99.90
27801;DHT22;15181;49.112;11.930;2022-12-18T06:20:27;-4.30;99.90
27801;DHT22;15181;49.112;11.930;2022-12-18T06:22:55;-4.30;99.90
27801;DHT22;15181;49.112;11.930;2022-12-18T06:25:22;-4.20;99.90
27801;DHT22;15181;49.112;11.930;2022-12-18T06:27:50;-4.20;99.90
27801;DHT22;15181;49.112;11.930;2022-12-18T06:30:17;-4.20;99.90
27801;DHT22;15181;49.112;11.930;2022-12-18T06:32:48;-4.20;99.90
27801;DHT22;15181;49.112;11.930;2022-12-18T06:35:15;-4.20;99.90
27801;DHT22;15181;49.112;11.930;2022-12-18T06:37:42;-4.10;99.90
27801;DHT22;15181;49.112;11.930;2022-12-18T06:40:09;-4.20;99.90
27801;DHT22;15181;49.112;11.930;2022-12-18T06:42:37;-4.20;99.90
27801;DHT22;15181;49.112;11.930;2022-12-18T06:45:05;-4.20;99.90
27801;DHT22;15181;49.112;11.930;2022-12-18T06:47:32;-4.20;99.90
27801;DHT22;15181;49.112;11.930;2022-12-18T06:50:00;-4.20;99.90
27801;DHT22;15181;49.112;11.930;2022-12-18T06:52:27;-4.20;99.90
27801;DHT22;15181;49.112;11.930;2022-12-18T06:54:54;-4.20;99.90
27801;DHT22;15181;49.112;11.930;2022-12-18T06:57:22;-4.20;99.90
27801;DHT22;15181;49.112;11.930;2022-12-18T06:59:49;-4.20;99.90
27801;DHT22;15181;49.112;11.930;2022-12-18T07:02:16;-4.20;99.90
27801;DHT22;15181;49.112;11.930;2022-12-18T07:04:44;-4.20;99.90
27801;DHT22;15181;49.112;11.930;2022-12-18T07:07:13;-4.10;99.90
27801;DHT22;15181;49.112;11.930;2022-12-18T07:09:40;-4.10;99.90
27801;DHT22;15181;49.112;11.930;2022-12-18T07:12:07;-3.90;99.90
27801;DHT22;15181;49.112;11.930;2022-12-18T07:14:34;-4.00;99.90
27801;DHT22;15181;49.112;11.930;2022-12-18T07:17:01;-4.00;99.90
27801;DHT22;15181;49.112;11.930;2022-12-18T07:19:29;-3.90;99.90
27801;DHT22;15181;49.112;11.930;2022-12-18T07:21:56;-3.90;99.90
27801;DHT22;15181;49.112;11.930;2022-12-18T07:24:26;-3.90;99.90
27801;DHT22;15181;49.112;11.930;2022-12-18T07:26:55;-3.90;99.90
27801;DHT22;15181;49.112;11.930;2022-12-18T07:29:23;-3.90;99.90
27801;DHT22;15181;49.112;11.930;2022-12-18T07:31:51;-3.90;99.90
27801;DHT22;15181;49.112;11.930;2022-12-18T07:34:18;-3.80;99.90
27801;DHT22;15181;49.112;11.930;2022-12-18T07:36:47;-3.80;99.90
27801;DHT22;15181;49.112;11.930;2022-12-18T07:39:16;-3.80;99.90
27801;DHT22;15181;49.112;11.930;2022-12-18T07:41:46;-3.70;99.90
27801;DHT22;15181;49.112;11.930;2022-12-18T07:44:33;-3.80;99.90
27801;DHT22;15181;49.112;11.930;2022-12-18T07:47:01;-3.80;99.90
27801;DHT22;15181;49.112;11.930;2022-12-18T07:49:30;-3.80;99.90
27801;DHT22;15181;49.112;11.930;2022-12-18T07:51:57;-3.80;99.90
27801;DHT22;15181;49.112;11.930;2022-12-18T07:54:25;-3.80;99.90
27801;DHT22;15181;49.112;11.930;2022-12-18T07:56:54;-3.70;99.90
27801;DHT22;15181;49.112;11.930;2022-12-18T07:59:21;-3.70;99.90
27801;DHT22;15181;49.112;11.930;2022-12-18T08:01:48;-3.60;99.90
27801;DHT22;15181;49.112;11.930;2022-12-18T08:04:15;-3.70;99.90
27801;DHT22;15181;49.112;11.930;2022-12-18T08:06:43;-3.60;99.90
27801;DHT22;15181;49.112;11.930;2022-12-18T08:09:10;-3.60;99.90
27801;DHT22;15181;49.112;11.930;2022-12-18T08:11:37;-3.60;99.90
27801;DHT22;15181;49.112;11.930;2022-12-18T08:14:05;-3.50;99.90
27801;DHT22;15181;49.112;11.930;2022-12-18T08:16:33;-3.50;99.90
27801;DHT22;15181;49.112;11.930;2022-12-18T08:19:00;-3.50;99.90
27801;DHT22;15181;49.112;11.930;2022-12-18T08:21:30;-3.50;99.90
27801;DHT22;15181;49.112;11.930;2022-12-18T08:23:59;-3.50;99.90
27801;DHT22;15181;49.112;11.930;2022-12-18T08:26:30;-3.50;99.90
27801;DHT22;15181;49.112;11.930;2022-12-18T08:28:59;-3.60;99.90
27801;DHT22;15181;49.112;11.930;2022-12-18T08:31:29;-3.40;99.90
27801;DHT22;15181;49.112;11.930;2022-12-18T08:33:57;-3.50;99.90
27801;DHT22;15181;49.112;11.930;2022-12-18T08:36:25;-3.50;99.90
27801;DHT22;15181;49.112;11.930;2022-12-18T08:38:57;-3.50;99.90
27801;DHT22;15181;49.112;11.930;2022-12-18T08:41:24;-3.40;99.90
27801;DHT22;15181;49.112;11.930;2022-12-18T08:43:51;-3.20;99.90
27801;DHT22;15181;49.112;11.930;2022-12-18T08:46:39;-3.30;99.90
27801;DHT22;15181;49.112;11.930;2022-12-18T08:49:07;-3.20;99.90
27801;DHT22;15181;49.112;11.930;2022-12-18T08:51:35;-3.10;99.90
27801;DHT22;15181;49.112;11.930;2022-12-18T08:54:04;-3.10;99.90
27801;DHT22;15181;49.112;11.930;2022-12-18T08:56:31;-3.10;99.90
27801;DHT22;15181;49.112;11.930;2022-12-18T08:58:59;-3.00;99.90
27801;DHT22;15181;49.112;11.930;2022-12-18T09:01:27;-3.00;99.90
27801;DHT22;15181;49.112;11.930;2022-12-18T09:03:55;-3.00;99.90
27801;DHT22;15181;49.112;11.930;2022-12-18T09:06:24;-2.90;99.90
27801;DHT22;15181;49.112;11.930;2022-12-18T09:08:52;-2.90;99.90
27801;DHT22;15181;49.112;11.930;2022-12-18T09:11:21;-2.90;99.90
27801;DHT22;15181;49.112;11.930;2022-12-18T09:13:53;-2.80;99.90
27801;DHT22;15181;49.112;11.930;2022-12-18T09:16:22;-2.80;99.90
27801;DHT22;15181;49.112;11.930;2022-12-18T09:18:50;-2.80;99.90
27801;DHT22;15181;49.112;11.930;2022-12-18T09:21:27;-2.80;99.90
27801;DHT22;15181;49.112;11.930;2022-12-18T09:23:55;-2.90;99.90
27801;DHT22;15181;49.112;11.930;2022-12-18T09:26:23;-2.90;99.90
27801;DHT22;15181;49.112;11.930;2022-12-18T09:28:52;-3.00;99.90
27801;DHT22;15181;49.112;11.930;2022-12-18T09:31:21;-3.00;99.90
27801;DHT22;15181;49.112;11.930;2022-12-18T09:33:48;-2.90;99.90
27801;DHT22;15181;49.112;11.930;2022-12-18T09:36:16;-3.00;99.90
27801;DHT22;15181;49.112;11.930;2022-12-18T09:38:46;-2.80;99.90
27801;DHT22;15181;49.112;11.930;2022-12-18T09:41:41;-2.90;99.90
27801;DHT22;15181;49.112;11.930;2022-12-18T09:44:25;-2.90;99.90
27801;DHT22;15181;49.112;11.930;2022-12-18T09:47:03;-2.90;99.90
27801;DHT22;15181;49.112;11.930;2022-12-18T09:49:35;-2.80;99.90
27801;DHT22;15181;49.112;11.930;2022-12-18T09:52:09;-2.80;99.90
27801;DHT22;15181;49.112;11.930;2022-12-18T09:54:41;-2.80;99.90
27801;DHT22;15181;49.112;11.930;2022-12-18T09:57:14;-2.90;99.90
27801;DHT22;15181;49.112;11.930;2022-12-18T09:59:43;-2.80;99.90
27801;DHT22;15181;49.112;11.930;2022-12-18T10:02:15;-2.60;99.90
27801;DHT22;15181;49.112;11.930;2022-12-18T10:04:43;-2.60;99.90
27801;DHT22;15181;49.112;11.930;2022-12-18T10:07:18;-2.60;99.90
27801;DHT22;15181;49.112;11.930;2022-12-18T10:09:58;-2.60;99.90
27801;DHT22;15181;49.112;11.930;2022-12-18T10:12:34;-2.60;99.90
27801;DHT22;15181;49.112;11.930;2022-12-18T10:15:10;-2.60;99.90
27801;DHT22;15181;49.112;11.930;2022-12-18T10:17:45;-2.60;99.90
27801;DHT22;15181;49.112;11.930;2022-12-18T10:20:16;-2.60;99.90
27801;DHT22;15181;49.112;11.930;2022-12-18T10:22:51;-2.60;99.90
27801;DHT22;15181;49.112;11.930;2022-12-18T10:25:26;-2.50;99.90
27801;DHT22;15181;49.112;11.930;2022-12-18T10:27:58;-2.50;99.90
27801;DHT22;15181;49.112;11.930;2022-12-18T10:30:27;-2.50;99.90
27801;DHT22;15181;49.112;11.930;2022-12-18T10:32:54;-2.50;99.90
27801;DHT22;15181;49.112;11.930;2022-12-18T10:35:27;-2.50;99.90
27801;DHT22;15181;49.112;11.930;2022-12-18T10:38:06;-2.40;99.90
27801;DHT22;15181;49.112;11.930;2022-12-18T10:40:49;-2.30;99.90
27801;DHT22;15181;49.112;11.930;2022-12-18T10:43:20;-2.40;99.90
27801;DHT22;15181;49.112;11.930;2022-12-18T10:46:11;-2.40;99.90
27801;DHT22;15181;49.112;11.930;2022-12-18T10:48:47;-2.40;99.90
27801;DHT22;15181;49.112;11.930;2022-12-18T10:51:20;-2.40;99.90
27801;DHT22;15181;49.112;11.930;2022-12-18T10:53:57;-2.40;99.90
27801;DHT22;15181;49.112;11.930;2022-12-18T10:56:28;-2.30;99.90
27801;DHT22;15181;49.112;11.930;2022-12-18T10:58:58;-2.30;99.90
27801;DHT22;15181;49.112;11.930;2022-12-18T11:01:45;-2.30;99.90
27801;DHT22;15181;49.112;11.930;2022-12-18T11:04:18;-2.30;99.90
27801;DHT22;15181;49.112;11.930;2022-12-18T11:06:58;-2.40;99.90
27801;DHT22;15181;49.112;11.930;2022-12-18T11:09:27;-2.30;99.90
27801;DHT22;15181;49.112;11.930;2022-12-18T11:11:57;-2.20;99.90
27801;DHT22;15181;49.112;11.930;2022-12-18T11:14:27;-2.40;99.90
27801;DHT22;15181;49.112;11.930;2022-12-18T11:16:56;-2.40;99.90
27801;DHT22;15181;49.112;11.930;2022-12-18T11:19:32;-2.40;99.90
27801;DHT22;15181;49.112;11.930;2022-12-18T11:22:01;-2.30;99.90
27801;DHT22;15181;49.112;11.930;2022-12-18T11:24:31;-2.30;99.90
27801;DHT22;15181;49.112;11.930;2022-12-18T11:27:03;-2.30;99.90
27801;DHT22;15181;49.112;11.930;2022-12-18T11:29:36;-2.30;99.90
27801;DHT22;15181;49.112;11.930;2022-12-18T11:32:29;-2.30;99.90
27801;DHT22;15181;49.112;11.930;2022-12-18T11:35:01;-2.20;99.90
27801;DHT22;15181;49.112;11.930;2022-12-18T11:37:30;-2.20;99.90
27801;DHT22;15181;49.112;11.930;2022-12-18T11:40:02;-2.10;99.90
27801;DHT22;15181;49.112;11.930;2022-12-18T11:42:38;-2.10;99.90
27801;DHT22;15181;49.112;11.930;2022-12-18T11:45:14;-2.10;99.90
27801;DHT22;15181;49.112;11.930;2022-12-18T11:47:52;-1.90;99.90
27801;DHT22;15181;49.112;11.930;2022-12-18T11:50:25;-1.90;99.90
27801;DHT22;15181;49.112;11.930;2022-12-18T11:52:53;-2.00;99.90
27801;DHT22;15181;49.112;11.930;2022-12-18T11:55:27;-1.90;99.90
27801;DHT22;15181;49.112;11.930;2022-12-18T11:58:07;-1.90;99.90
27801;DHT22;15181;49.112;11.930;2022-12-18T12:00:42;-1.90;99.90
27801;DHT22;15181;49.112;11.930;2022-12-18T12:03:26;-1.80;99.90
27801;DHT22;15181;49.112;11.930;2022-12-18T12:06:08;-1.60;99.90
27801;DHT22;15181;49.112;11.930;2022-12-18T12:08:46;-1.60;99.90
27801;DHT22;15181;49.112;11.930;2022-12-18T12:11:21;-1.60;99.90
27801;DHT22;15181;49.112;11.930;2022-12-18T12:13:55;-1.70;99.90
27801;DHT22;15181;49.112;11.930;2022-12-18T12:16:29;-1.70;99.90
27801;DHT22;15181;49.112;11.930;2022-12-18T12:19:24;-1.70;99.90
27801;DHT22;15181;49.112;11.930;2022-12-18T12:22:02;-1.70;99.90
27801;DHT22;15181;49.112;11.930;2022-12-18T12:24:37;-1.70;99.90
27801;DHT22;15181;49.112;11.930;2022-12-18T12:27:11;-1.80;99.90
27801;DHT22;15181;49.112;11.930;2022-12-18T12:29:55;-1.80;99.90
27801;DHT22;15181;49.112;11.930;2022-12-18T12:32:43;-1.80;99.90
27801;DHT22;15181;49.112;11.930;2022-12-18T12:35:25;-1.80;99.90
27801;DHT22;15181;49.112;11.930;2022-12-18T12:38:05;-1.70;99.90
27801;DHT22;15181;49.112;11.930;2022-12-18T12:40:36;-2.00;99.90
27801;DHT22;15181;49.112;11.930;2022-12-18T12:43:15;-1.90;99.90
27801;DHT22;15181;49.112;11.930;2022-12-18T12:45:49;-2.00;99.90
27801;DHT22;15181;49.112;11.930;2022-12-18T12:48:35;-2.00;99.90
27801;DHT22;15181;49.112;11.930;2022-12-18T12:51:08;-2.00;99.90
27801;DHT22;15181;49.112;11.930;2022-12-18T12:53:37;-2.00;99.90
27801;DHT22;15181;49.112;11.930;2022-12-18T12:56:05;-2.00;99.90
27801;DHT22;15181;49.112;11.930;2022-12-18T12:58:38;-2.00;99.90
27801;DHT22;15181;49.112;11.930;2022-12-18T13:01:18;-1.90;99.90
27801;DHT22;15181;49.112;11.930;2022-12-18T13:03:56;-1.80;99.90
27801;DHT22;15181;49.112;11.930;2022-12-18T13:06:35;-1.80;99.90
27801;DHT22;15181;49.112;11.930;2022-12-18T13:09:04;-1.80;99.90
27801;DHT22;15181;49.112;11.930;2022-12-18T13:11:35;-1.60;99.90
27801;DHT22;15181;49.112;11.930;2022-12-18T13:14:29;-1.80;99.90
27801;DHT22;15181;49.112;11.930;2022-12-18T13:17:16;-1.80;99.90
27801;DHT22;15181;49.112;11.930;2022-12-18T13:19:44;-1.70;99.90
27801;DHT22;15181;49.112;11.930;2022-12-18T13:22:22;-1.70;99.90
27801;DHT22;15181;49.112;11.930;2022-12-18T13:24:50;-1.70;99.90
27801;DHT22;15181;49.112;11.930;2022-12-18T13:27:55;-1.60;99.90
27801;DHT22;15181;49.112;11.930;2022-12-18T13:30:45;-1.70;99.90
27801;DHT22;15181;49.112;11.930;2022-12-18T13:33:40;-1.70;99.90
27801;DHT22;15181;49.112;11.930;2022-12-18T13:36:17;-1.70;99.90
27801;DHT22;15181;49.112;11.930;2022-12-18T13:39:23;-1.70;99.90
27801;DHT22;15181;49.112;11.930;2022-12-18T13:41:52;-1.70;99.90
27801;DHT22;15181;49.112;11.930;2022-12-18T13:44:29;-1.80;99.90
27801;DHT22;15181;49.112;11.930;2022-12-18T13:46:59;-1.80;99.90
27801;DHT22;15181;49.112;11.930;2022-12-18T13:49:36;-1.90;99.90
27801;DHT22;15181;49.112;11.930;2022-12-18T13:52:17;-1.90;99.90
27801;DHT22;15181;49.112;11.930;2022-12-18T13:54:47;-1.90;99.90
27801;DHT22;15181;49.112;11.930;2022-12-18T13:57:28;-2.10;99.90
27801;DHT22;15181;49.112;11.930;2022-12-18T13:59:57;-2.20;99.90
27801;DHT22;15181;49.112;11.930;2022-12-18T14:02:27;-2.20;99.90
27801;DHT22;15181;49.112;11.930;2022-12-18T14:04:56;-2.20;99.90
27801;DHT22;15181;49.112;11.930;2022-12-18T14:07:25;-2.30;99.90
27801;DHT22;15181;49.112;11.930;2022-12-18T14:09:54;-2.20;99.90
27801;DHT22;15181;49.112;11.930;2022-12-18T14:12:24;-2.20;99.90
27801;DHT22;15181;49.112;11.930;2022-12-18T14:15:23;-2.20;99.90
27801;DHT22;15181;49.112;11.930;2022-12-18T14:17:55;-2.10;99.90
27801;DHT22;15181;49.112;11.930;2022-12-18T14:20:26;-2.10;99.90
27801;DHT22;15181;49.112;11.930;2022-12-18T14:22:54;-2.10;99.90
27801;DHT22;15181;49.112;11.930;2022-12-18T14:25:24;-2.10;99.90
27801;DHT22;15181;49.112;11.930;2022-12-18T14:27:53;-2.10;99.90
27801;DHT22;15181;49.112;11.930;2022-12-18T14:30:29;-2.10;99.90
27801;DHT22;15181;49.112;11.930;2022-12-18T14:33:05;-2.10;99.90
27801;DHT22;15181;49.112;11.930;2022-12-18T14:35:39;-2.10;99.90
27801;DHT22;15181;49.112;11.930;2022-12-18T14:38:15;-2.20;99.90
27801;DHT22;15181;49.112;11.930;2022-12-18T14:40:47;-2.20;99.90
27801;DHT22;15181;49.112;11.930;2022-12-18T14:43:15;-2.30;99.90
27801;DHT22;15181;49.112;11.930;2022-12-18T14:45:43;-2.40;99.90
27801;DHT22;15181;49.112;11.930;2022-12-18T14:48:16;-2.40;99.90
27801;DHT22;15181;49.112;11.930;2022-12-18T14:50:55;-2.50;99.90
27801;DHT22;15181;49.112;11.930;2022-12-18T14:53:35;-2.50;99.90
27801;DHT22;15181;49.112;11.930;2022-12-18T14:56:09;-2.60;99.90
27801;DHT22;15181;49.112;11.930;2022-12-18T14:58:39;-2.60;99.90
27801;DHT22;15181;49.112;11.930;2022-12-18T15:01:07;-2.80;99.90
27801;DHT22;15181;49.112;11.930;2022-12-18T15:03:34;-2.60;99.90
27801;DHT22;15181;49.112;11.930;2022-12-18T15:06:22;-2.70;99.90
27801;DHT22;15181;49.112;11.930;2022-12-18T15:08:51;-2.70;99.90
27801;DHT22;15181;49.112;11.930;2022-12-18T15:11:34;-2.70;99.90
27801;DHT22;15181;49.112;11.930;2022-12-18T15:14:21;-2.80;99.90
27801;DHT22;15181;49.112;11.930;2022-12-18T15:16:53;-2.90;99.90
27801;DHT22;15181;49.112;11.930;2022-12-18T15:19:22;-3.00;99.90
27801;DHT22;15181;49.112;11.930;2022-12-18T15:21:54;-2.90;99.90
27801;DHT22;15181;49.112;11.930;2022-12-18T15:24:26;-3.00;99.90
27801;DHT22;15181;49.112;11.930;2022-12-18T15:26:54;-3.10;99.90
27801;DHT22;15181;49.112;11.930;2022-12-18T15:29:22;-3.20;99.90
27801;DHT22;15181;49.112;11.930;2022-12-18T15:32:01;-3.20;99.90
27801;DHT22;15181;49.112;11.930;2022-12-18T15:34:29;-3.30;99.90
27801;DHT22;15181;49.112;11.930;2022-12-18T15:36:58;-3.30;99.90
27801;DHT22;15181;49.112;11.930;2022-12-18T15:39:25;-3.40;99.90
27801;DHT22;15181;49.112;11.930;2022-12-18T15:41:52;-3.40;99.90
27801;DHT22;15181;49.112;11.930;2022-12-18T15:44:37;-3.40;99.90